createdAt,value
2024-01-24T00:01:14.662Z,8.20
2024-01-24T00:03:41.904Z,8.00
2024-01-24T00:06:08.979Z,8.07
2024-01-24T00:08:36.030Z,6.65
2024-01-24T00:11:03.309Z,7.40
2024-01-24T00:13:30.336Z,8.38
2024-01-24T00:15:57.365Z,7.53
2024-01-24T00:18:24.485Z,7.88
2024-01-24T00:20:52.357Z,7.88
2024-01-24T00:23:19.374Z,9.77
2024-01-24T00:25:46.348Z,15.27
2024-01-24T00:28:16.607Z,16.77
2024-01-24T00:30:47.353Z,18.92
2024-01-24T00:33:16.750Z,14.18
2024-01-24T00:35:43.767Z,9.95
2024-01-24T00:38:10.721Z,11.82
2024-01-24T00:40:38.265Z,21.55
2024-01-24T00:43:06.853Z,25.58
2024-01-24T00:45:33.915Z,27.80
2024-01-24T00:48:00.982Z,28.55
2024-01-24T00:50:28.063Z,28.02
2024-01-24T00:52:56.852Z,28.05
2024-01-24T00:55:25.810Z,26.88
2024-01-24T00:57:53.638Z,26.85
2024-01-24T01:00:20.776Z,26.85
2024-01-24T01:02:47.848Z,28.70
2024-01-24T01:05:15.061Z,28.88
2024-01-24T01:07:42.107Z,27.10
2024-01-24T01:10:10.288Z,27.20
2024-01-24T01:12:37.429Z,26.65
2024-01-24T01:15:04.844Z,29.35
2024-01-24T01:17:31.926Z,30.52
2024-01-24T01:20:00.231Z,31.85
2024-01-24T01:22:27.879Z,34.05
2024-01-24T01:24:54.978Z,35.30
2024-01-24T01:27:23.735Z,34.03
2024-01-24T01:29:50.713Z,44.05
2024-01-24T01:32:17.694Z,34.10
2024-01-24T01:34:44.740Z,33.05
2024-01-24T01:37:11.742Z,29.88
2024-01-24T01:39:38.795Z,30.63
2024-01-24T01:42:07.494Z,28.73
2024-01-24T01:44:44.362Z,27.67
2024-01-24T01:47:12.101Z,28.50
2024-01-24T01:49:39.682Z,30.20
2024-01-24T01:52:07.969Z,30.70
2024-01-24T01:54:35.306Z,29.67
2024-01-24T01:57:03.363Z,33.58
2024-01-24T01:59:30.415Z,32.72
2024-01-24T02:02:00.326Z,30.83
2024-01-24T02:04:28.081Z,32.95
2024-01-24T02:06:56.899Z,31.55
2024-01-24T02:09:24.844Z,28.77
2024-01-24T02:11:51.917Z,28.35
2024-01-24T02:14:18.889Z,36.13
2024-01-24T02:16:45.975Z,37.10
2024-01-24T02:19:12.982Z,34.83
2024-01-24T02:21:40.125Z,32.17
2024-01-24T02:24:11.640Z,38.50
2024-01-24T02:26:38.620Z,33.38
2024-01-24T02:29:06.084Z,31.55
2024-01-24T02:31:32.998Z,29.13
2024-01-24T02:34:00.056Z,30.05
2024-01-24T02:36:27.072Z,33.38
2024-01-24T02:38:56.261Z,33.92
2024-01-24T02:41:24.724Z,30.30
2024-01-24T02:43:51.668Z,28.50
2024-01-24T02:46:18.632Z,27.83
2024-01-24T02:48:45.927Z,26.80
2024-01-24T02:51:13.106Z,24.60
2024-01-24T02:53:40.331Z,22.90
2024-01-24T02:56:07.411Z,22.48
2024-01-24T02:58:34.447Z,21.85
2024-01-24T03:01:01.471Z,21.83
2024-01-24T03:03:28.533Z,20.45
2024-01-24T03:05:55.657Z,20.13
2024-01-24T03:08:22.635Z,19.65
2024-01-24T03:10:49.604Z,18.90
2024-01-24T03:13:16.598Z,20.35
2024-01-24T03:15:43.598Z,18.60
2024-01-24T03:18:10.699Z,19.25
2024-01-24T03:20:38.951Z,18.15
2024-01-24T03:23:06.029Z,18.08
2024-01-24T03:25:33.084Z,19.42
2024-01-24T03:28:00.143Z,18.55
2024-01-24T03:30:27.193Z,19.50
2024-01-24T03:32:54.155Z,18.58
2024-01-24T03:35:21.148Z,17.05
2024-01-24T03:37:48.089Z,16.42
2024-01-24T03:40:15.150Z,15.25
2024-01-24T03:42:42.332Z,15.32
2024-01-24T03:45:09.958Z,15.75
2024-01-24T03:47:36.899Z,17.75
2024-01-24T03:50:04.033Z,17.58
2024-01-24T03:52:31.013Z,15.73
2024-01-24T03:54:58.036Z,16.48
2024-01-24T03:57:25.066Z,16.88
2024-01-24T03:59:52.013Z,17.23
2024-01-24T04:02:18.937Z,18.17
2024-01-24T04:04:45.955Z,17.73
2024-01-24T04:07:12.976Z,20.25
2024-01-24T04:09:39.957Z,17.15
2024-01-24T04:12:07.108Z,19.85
2024-01-24T04:14:34.035Z,20.35
2024-01-24T04:17:01.041Z,21.08
2024-01-24T04:19:28.129Z,20.65
2024-01-24T04:21:55.249Z,20.05
2024-01-24T04:24:22.340Z,18.80
2024-01-24T04:26:49.554Z,17.60
2024-01-24T04:29:18.037Z,17.73
2024-01-24T04:31:45.460Z,21.42
2024-01-24T04:34:12.446Z,21.95
2024-01-24T04:36:39.479Z,23.50
2024-01-24T04:39:06.816Z,22.05
2024-01-24T04:41:34.717Z,20.02
2024-01-24T04:44:02.502Z,20.52
2024-01-24T04:46:29.494Z,23.05
2024-01-24T04:48:56.632Z,24.00
2024-01-24T04:51:23.717Z,24.33
2024-01-24T04:53:51.488Z,25.85
2024-01-24T04:56:18.491Z,27.00
2024-01-24T04:58:45.473Z,27.50
2024-01-24T05:01:12.947Z,27.38
2024-01-24T05:03:40.021Z,23.17
2024-01-24T05:06:10.957Z,24.30
2024-01-24T05:08:38.710Z,24.50
2024-01-24T05:11:06.441Z,20.83
2024-01-24T05:13:33.476Z,20.00
2024-01-24T05:16:00.780Z,21.55
2024-01-24T05:18:27.909Z,21.25
2024-01-24T05:20:54.969Z,21.65
2024-01-24T05:23:22.383Z,22.30
2024-01-24T05:25:49.397Z,20.38
2024-01-24T05:28:17.400Z,19.00
2024-01-24T05:30:44.399Z,19.73
2024-01-24T05:33:12.092Z,19.65
2024-01-24T05:35:39.259Z,19.95
2024-01-24T05:38:06.204Z,19.98
2024-01-24T05:40:33.143Z,18.70
2024-01-24T05:43:01.421Z,18.15
2024-01-24T05:45:28.858Z,18.38
2024-01-24T05:47:55.913Z,18.38
2024-01-24T05:50:23.492Z,18.88
2024-01-24T05:52:50.480Z,18.60
2024-01-24T05:55:17.620Z,19.98
2024-01-24T05:57:47.532Z,18.25
2024-01-24T06:00:16.160Z,18.50
2024-01-24T06:02:44.624Z,16.95
2024-01-24T06:05:13.270Z,21.20
2024-01-24T06:07:40.584Z,22.13
2024-01-24T06:10:08.574Z,22.05
2024-01-24T06:12:35.634Z,24.00
2024-01-24T06:15:03.550Z,21.70
2024-01-24T06:17:32.264Z,23.13
2024-01-24T06:20:00.919Z,21.15
2024-01-24T06:22:28.017Z,19.77
2024-01-24T06:24:56.660Z,25.13
2024-01-24T06:27:23.644Z,29.20
2024-01-24T06:30:17.327Z,43.42
2024-01-24T06:32:39.322Z,45.47
2024-01-24T06:35:06.733Z,42.83
2024-01-24T06:37:33.761Z,35.67
2024-01-24T06:40:01.540Z,33.58
2024-01-24T06:42:28.499Z,37.53
2024-01-24T06:44:55.666Z,40.53
2024-01-24T06:47:22.897Z,40.88
2024-01-24T06:49:49.921Z,34.28
2024-01-24T06:52:17.754Z,40.33
2024-01-24T06:54:44.854Z,40.78
2024-01-24T06:57:11.871Z,37.30
2024-01-24T06:59:38.816Z,39.03
2024-01-24T07:02:07.071Z,38.88
2024-01-24T07:04:34.218Z,28.23
2024-01-24T07:07:01.708Z,26.42
2024-01-24T07:09:28.700Z,20.73
2024-01-24T07:11:56.055Z,20.20
2024-01-24T07:14:23.044Z,21.52
2024-01-24T07:16:50.030Z,24.05
2024-01-24T07:19:18.079Z,25.15
2024-01-24T07:21:45.193Z,27.20
2024-01-24T07:24:12.178Z,29.30
2024-01-24T07:26:39.115Z,40.47
2024-01-24T07:29:06.066Z,45.20
2024-01-24T07:31:33.146Z,31.15
2024-01-24T07:34:00.219Z,30.13
2024-01-24T07:36:28.372Z,27.48
2024-01-24T07:38:55.449Z,28.75
2024-01-24T07:41:22.366Z,30.10
2024-01-24T07:43:49.311Z,33.13
2024-01-24T07:46:17.227Z,32.92
2024-01-24T07:48:44.845Z,28.70
2024-01-24T07:51:12.385Z,31.85
2024-01-24T07:53:39.926Z,37.15
2024-01-24T07:56:15.733Z,50.45
2024-01-24T07:58:51.030Z,60.22
2024-01-24T08:01:18.451Z,52.42
2024-01-24T08:03:46.438Z,48.95
2024-01-24T08:06:14.899Z,50.67
2024-01-24T08:08:41.921Z,44.70
2024-01-24T08:11:09.025Z,44.05
2024-01-24T08:13:36.126Z,44.25
2024-01-24T08:16:03.970Z,44.05
2024-01-24T08:18:31.259Z,43.95
2024-01-24T08:20:59.235Z,48.58
2024-01-24T08:23:34.102Z,57.58
2024-01-24T08:26:05.598Z,59.65
2024-01-24T08:28:32.590Z,65.57
2024-01-24T08:30:59.962Z,45.08
2024-01-24T08:33:27.068Z,32.50
2024-01-24T08:35:54.129Z,33.75
2024-01-24T08:38:21.130Z,30.40
2024-01-24T08:40:48.096Z,25.67
2024-01-24T08:43:15.083Z,22.95
2024-01-24T08:45:42.123Z,20.85
2024-01-24T08:48:09.520Z,17.23
2024-01-24T08:50:36.572Z,18.38
2024-01-24T08:53:03.994Z,18.52
2024-01-24T08:55:32.589Z,20.75
2024-01-24T08:57:59.642Z,19.10
2024-01-24T09:00:26.877Z,20.25
2024-01-24T09:02:54.720Z,20.42
2024-01-24T09:05:23.151Z,42.58
2024-01-24T09:07:50.155Z,32.55
2024-01-24T09:10:18.200Z,41.08
2024-01-24T09:12:45.346Z,36.55
2024-01-24T09:15:12.353Z,35.15
2024-01-24T09:17:39.687Z,35.53
2024-01-24T09:20:08.242Z,36.08
2024-01-24T09:22:35.605Z,36.97
2024-01-24T09:25:06.593Z,38.10
2024-01-24T09:27:35.613Z,40.22
2024-01-24T09:30:02.596Z,50.10
2024-01-24T09:32:29.642Z,36.45
2024-01-24T09:34:56.797Z,32.80
2024-01-24T09:37:23.948Z,39.13
2024-01-24T09:39:52.288Z,42.17
2024-01-24T09:42:22.189Z,39.47
2024-01-24T09:44:50.696Z,31.13
2024-01-24T09:47:18.445Z,30.77
2024-01-24T09:49:45.734Z,29.13
2024-01-24T09:52:15.393Z,19.73
2024-01-24T09:54:43.488Z,28.35
2024-01-24T09:57:11.658Z,29.48
2024-01-24T09:59:38.817Z,26.33
2024-01-24T10:02:07.389Z,23.60
2024-01-24T10:04:38.968Z,23.20
2024-01-24T10:07:10.135Z,27.48
2024-01-24T10:09:37.540Z,37.60
2024-01-24T10:12:07.490Z,31.20
2024-01-24T10:14:35.018Z,26.98
2024-01-24T10:17:04.985Z,26.50
2024-01-24T10:19:32.033Z,29.35
2024-01-24T10:21:59.590Z,30.85
2024-01-24T10:24:26.623Z,38.15
2024-01-24T10:26:53.942Z,37.97
2024-01-24T10:29:21.359Z,42.92
2024-01-24T10:31:48.946Z,26.50
2024-01-24T10:34:16.276Z,25.20
2024-01-24T10:36:45.360Z,21.27
2024-01-24T10:39:15.560Z,7.55
2024-01-24T10:41:45.323Z,14.02
2024-01-24T10:44:16.677Z,18.05
2024-01-24T10:46:44.250Z,19.40
2024-01-24T10:49:15.369Z,16.00
2024-01-24T10:51:44.609Z,18.88
2024-01-24T10:54:15.389Z,24.27
2024-01-24T10:56:48.413Z,25.02
2024-01-24T10:59:16.308Z,26.33
2024-01-24T11:01:43.617Z,24.73
2024-01-24T11:04:11.882Z,23.65
2024-01-24T11:07:10.379Z,20.10
2024-01-24T11:09:55.206Z,14.63
2024-01-24T11:12:23.045Z,14.38
2024-01-24T11:14:50.774Z,13.35
2024-01-24T11:17:17.821Z,9.55
2024-01-24T11:19:45.293Z,9.07
2024-01-24T11:22:27.332Z,8.30
2024-01-24T11:24:57.561Z,7.90
2024-01-24T11:27:39.420Z,8.50
2024-01-24T11:30:08.185Z,7.43
2024-01-24T11:32:47.810Z,7.68
2024-01-24T11:35:37.390Z,7.90
2024-01-24T11:38:32.102Z,7.70
2024-01-24T11:41:13.833Z,6.97
2024-01-24T11:43:45.203Z,7.05
2024-01-24T11:46:13.231Z,6.90
2024-01-24T11:48:41.196Z,7.20
2024-01-24T11:51:09.502Z,7.10
2024-01-24T11:53:36.558Z,6.88
2024-01-24T11:56:04.961Z,7.07
2024-01-24T11:58:32.721Z,8.23
2024-01-24T12:01:03.489Z,7.55
2024-01-24T12:03:31.328Z,9.32
2024-01-24T12:06:02.093Z,7.25
2024-01-24T12:08:29.669Z,7.18
2024-01-24T12:10:57.608Z,7.70
2024-01-24T12:13:27.240Z,8.23
2024-01-24T12:15:56.560Z,7.60
2024-01-24T12:18:24.067Z,6.63
2024-01-24T12:20:56.765Z,7.85
2024-01-24T12:23:26.686Z,7.57
2024-01-24T12:25:54.502Z,7.55
2024-01-24T12:28:22.982Z,8.70
2024-01-24T12:30:52.716Z,9.93
2024-01-24T12:33:20.555Z,12.23
2024-01-24T12:35:48.830Z,9.63
2024-01-24T12:38:16.595Z,6.85
2024-01-24T12:40:55.554Z,7.43
2024-01-24T12:43:24.516Z,7.97
2024-01-24T12:45:54.505Z,7.75
2024-01-24T12:48:23.872Z,7.15
2024-01-24T12:50:52.817Z,7.20
2024-01-24T12:53:21.605Z,6.95
2024-01-24T12:55:51.165Z,6.97
2024-01-24T12:58:19.105Z,8.60
2024-01-24T13:00:46.372Z,5.88
2024-01-24T13:03:15.795Z,6.63
2024-01-24T13:05:47.195Z,7.07
2024-01-24T13:08:15.863Z,5.60
2024-01-24T13:10:46.710Z,6.00
2024-01-24T13:13:14.887Z,4.72
2024-01-24T13:15:42.436Z,4.13
2024-01-24T13:18:10.834Z,3.78
2024-01-24T13:20:37.875Z,2.70
2024-01-24T13:23:05.133Z,2.47
2024-01-24T13:25:32.174Z,2.80
2024-01-24T13:28:00.127Z,1.90
2024-01-24T13:30:27.977Z,2.20
2024-01-24T13:32:55.837Z,2.20
2024-01-24T13:35:23.179Z,1.73
2024-01-24T13:37:50.672Z,1.75
2024-01-24T13:40:18.640Z,1.85
2024-01-24T13:42:46.276Z,2.00
2024-01-24T13:45:13.434Z,1.77
2024-01-24T13:47:40.646Z,2.28
2024-01-24T13:50:08.473Z,2.10
2024-01-24T13:52:35.803Z,2.30
2024-01-24T13:55:03.667Z,2.20
2024-01-24T13:57:31.262Z,1.60
2024-01-24T13:59:58.866Z,1.70
2024-01-24T14:02:26.336Z,1.55
2024-01-24T14:04:53.420Z,2.17
2024-01-24T14:07:20.454Z,2.00
2024-01-24T14:09:47.532Z,2.53
2024-01-24T14:12:15.151Z,2.47
2024-01-24T14:14:42.116Z,2.15
2024-01-24T14:17:11.449Z,2.20
2024-01-24T14:19:38.485Z,2.10
2024-01-24T14:22:05.646Z,1.60
2024-01-24T14:24:32.772Z,2.05
2024-01-24T14:26:59.754Z,1.90
2024-01-24T14:29:26.723Z,2.15
2024-01-24T14:31:53.771Z,2.38
2024-01-24T14:34:20.879Z,2.17
2024-01-24T14:36:52.393Z,2.03
2024-01-24T14:39:23.232Z,2.35
2024-01-24T14:41:50.442Z,2.33
2024-01-24T14:44:18.426Z,2.00
2024-01-24T14:46:45.399Z,2.53
2024-01-24T14:49:12.652Z,2.13
2024-01-24T14:51:39.743Z,2.22
2024-01-24T14:54:06.844Z,2.08
2024-01-24T14:56:35.361Z,2.05
2024-01-24T14:59:02.581Z,1.83
2024-01-24T15:01:29.621Z,2.05
2024-01-24T15:04:00.188Z,2.35
2024-01-24T15:06:27.501Z,2.00
2024-01-24T15:08:54.676Z,1.90
2024-01-24T15:11:21.658Z,2.35
2024-01-24T15:13:48.615Z,2.60
2024-01-24T15:16:16.399Z,2.67
2024-01-24T15:18:44.399Z,2.55
2024-01-24T15:21:13.680Z,2.63
2024-01-24T15:23:41.907Z,3.40
2024-01-24T15:26:11.131Z,3.97
2024-01-24T15:28:40.331Z,5.15
2024-01-24T15:31:08.680Z,4.03
2024-01-24T15:33:35.978Z,4.53
2024-01-24T15:36:03.444Z,4.10
2024-01-24T15:38:30.540Z,4.03
2024-01-24T15:40:58.119Z,4.40
2024-01-24T15:43:27.783Z,3.53
2024-01-24T15:45:55.194Z,3.40
2024-01-24T15:48:22.362Z,3.15
2024-01-24T15:50:49.894Z,2.72
2024-01-24T15:53:17.126Z,2.95
2024-01-24T15:55:44.217Z,4.35
2024-01-24T15:58:11.685Z,4.88
2024-01-24T16:00:38.842Z,5.57
2024-01-24T16:03:06.067Z,8.05
2024-01-24T16:05:46.777Z,9.80
2024-01-24T16:08:15.836Z,8.60
2024-01-24T16:10:43.911Z,3.58
2024-01-24T16:13:11.516Z,3.92
2024-01-24T16:15:39.306Z,3.90
2024-01-24T16:18:07.230Z,5.20
2024-01-24T16:20:35.466Z,4.43
2024-01-24T16:23:02.503Z,3.08
2024-01-24T16:25:29.528Z,3.83
2024-01-24T16:27:56.776Z,4.00
2024-01-24T16:30:29.353Z,4.50
2024-01-24T16:32:57.516Z,6.95
2024-01-24T16:35:24.930Z,6.88
2024-01-24T16:37:53.061Z,6.10
2024-01-24T16:40:20.257Z,14.52
2024-01-24T16:42:47.416Z,8.25
2024-01-24T16:45:15.892Z,7.03
2024-01-24T16:47:45.956Z,7.25
2024-01-24T16:50:14.917Z,6.80
2024-01-24T16:52:42.032Z,7.07
2024-01-24T16:55:09.776Z,7.07
2024-01-24T16:57:37.036Z,7.15
2024-01-24T17:00:05.493Z,7.13
2024-01-24T17:02:38.606Z,10.00
2024-01-24T17:05:13.715Z,12.55
2024-01-24T17:07:41.041Z,15.70
2024-01-24T17:10:08.449Z,14.52
2024-01-24T17:12:37.075Z,13.10
2024-01-24T17:15:04.507Z,11.48
2024-01-24T17:17:31.517Z,12.32
2024-01-24T17:19:59.054Z,12.50
2024-01-24T17:22:27.895Z,11.80
2024-01-24T17:24:54.981Z,13.70
2024-01-24T17:27:22.290Z,11.90
2024-01-24T17:29:49.355Z,11.27
2024-01-24T17:32:17.244Z,8.82
2024-01-24T17:34:44.562Z,10.60
2024-01-24T17:37:13.308Z,13.73
2024-01-24T17:39:40.333Z,12.57
2024-01-24T17:42:07.531Z,50.38
2024-01-24T17:44:35.454Z,56.63
2024-01-24T17:47:02.740Z,83.30
2024-01-24T17:49:29.973Z,43.75
2024-01-24T17:51:57.806Z,32.30
2024-01-24T17:54:25.159Z,40.35
2024-01-24T17:56:52.306Z,31.42
2024-01-24T17:59:19.862Z,43.15
2024-01-24T18:01:47.826Z,33.38
2024-01-24T18:04:15.246Z,23.90
2024-01-24T18:06:42.858Z,16.27
2024-01-24T18:09:10.140Z,18.08
2024-01-24T18:11:39.305Z,16.67
2024-01-24T18:14:06.535Z,13.77
2024-01-24T18:16:33.604Z,14.30
2024-01-24T18:19:00.667Z,16.50
2024-01-24T18:21:28.024Z,14.20
2024-01-24T18:23:55.473Z,15.15
2024-01-24T18:26:22.448Z,12.07
2024-01-24T18:28:51.288Z,9.20
2024-01-24T18:31:18.979Z,11.30
2024-01-24T18:33:46.206Z,19.40
2024-01-24T18:36:13.456Z,24.05
2024-01-24T18:38:41.615Z,38.65
2024-01-24T18:41:08.678Z,39.60
2024-01-24T18:43:35.794Z,37.95
2024-01-24T18:46:03.024Z,35.88
2024-01-24T18:48:30.436Z,43.35
2024-01-24T18:50:57.791Z,43.67
2024-01-24T18:53:25.077Z,41.42
2024-01-24T18:55:53.605Z,37.47
2024-01-24T18:58:21.533Z,38.80
2024-01-24T19:00:49.175Z,35.65
2024-01-24T19:03:16.513Z,37.88
2024-01-24T19:05:43.895Z,33.97
2024-01-24T19:08:14.458Z,33.22
2024-01-24T19:10:41.799Z,42.97
2024-01-24T19:13:09.137Z,38.53
2024-01-24T19:15:37.809Z,40.95
2024-01-24T19:18:11.050Z,41.17
2024-01-24T19:20:43.162Z,41.40
2024-01-24T19:23:10.891Z,43.42
2024-01-24T19:25:38.109Z,43.28
2024-01-24T19:28:05.435Z,45.85
2024-01-24T19:30:32.463Z,38.20
2024-01-24T19:32:59.582Z,37.97
2024-01-24T19:35:28.945Z,42.70
2024-01-24T19:37:56.403Z,45.00
2024-01-24T19:40:23.756Z,32.22
2024-01-24T19:42:51.022Z,37.13
2024-01-24T19:45:18.139Z,33.80
2024-01-24T19:47:45.412Z,35.30
2024-01-24T19:50:12.600Z,36.60
2024-01-24T19:52:40.154Z,35.58
2024-01-24T19:55:08.554Z,37.78
2024-01-24T19:57:37.033Z,38.20
2024-01-24T20:00:04.998Z,45.88
2024-01-24T20:02:34.133Z,44.60
2024-01-24T20:05:02.913Z,43.95
2024-01-24T20:07:30.091Z,41.30
2024-01-24T20:09:57.168Z,40.47
2024-01-24T20:12:24.468Z,41.13
2024-01-24T20:14:51.679Z,44.92
2024-01-24T20:17:21.045Z,44.35
2024-01-24T20:19:50.262Z,48.65
2024-01-24T20:22:18.239Z,47.55
2024-01-24T20:24:46.686Z,47.05
2024-01-24T20:27:13.756Z,51.83
2024-01-24T20:29:40.763Z,53.55
2024-01-24T20:32:07.912Z,54.83
2024-01-24T20:34:35.296Z,63.33
2024-01-24T20:37:03.317Z,72.05
2024-01-24T20:39:30.623Z,75.95
2024-01-24T20:41:58.244Z,85.88
2024-01-24T20:44:25.251Z,82.07
2024-01-24T20:46:52.498Z,70.63
2024-01-24T20:49:19.510Z,72.57
2024-01-24T20:51:50.411Z,74.65
2024-01-24T20:54:17.689Z,68.90
2024-01-24T20:56:45.212Z,71.25
2024-01-24T20:59:12.367Z,72.45
2024-01-24T21:01:39.517Z,74.00
2024-01-24T21:04:06.736Z,79.47
2024-01-24T21:06:34.044Z,75.07
2024-01-24T21:09:01.042Z,69.15
2024-01-24T21:11:29.110Z,62.33
2024-01-24T21:13:56.158Z,66.20
2024-01-24T21:16:23.429Z,66.13
2024-01-24T21:18:51.168Z,64.00
2024-01-24T21:21:18.395Z,64.57
2024-01-24T21:23:45.457Z,84.65
2024-01-24T21:26:12.455Z,82.72
2024-01-24T21:28:40.732Z,79.43
2024-01-24T21:31:08.680Z,70.25
2024-01-24T21:33:36.392Z,77.32
2024-01-24T21:36:03.941Z,78.70
2024-01-24T21:38:30.935Z,73.05
2024-01-24T21:40:57.958Z,76.28
2024-01-24T21:43:24.922Z,69.53
2024-01-24T21:45:51.967Z,70.55
2024-01-24T21:48:19.144Z,67.55
2024-01-24T21:50:46.885Z,69.90
2024-01-24T21:53:13.867Z,77.70
2024-01-24T21:55:42.518Z,89.22
2024-01-24T21:58:09.625Z,89.38
2024-01-24T22:00:36.755Z,86.63
2024-01-24T22:03:04.377Z,108.57
2024-01-24T22:05:31.471Z,119.72
2024-01-24T22:07:59.560Z,84.95
2024-01-24T22:10:26.615Z,87.95
2024-01-24T22:12:56.185Z,98.30
2024-01-24T22:15:23.257Z,103.47
2024-01-24T22:17:51.031Z,78.57
2024-01-24T22:20:18.212Z,63.20
2024-01-24T22:22:45.588Z,70.03
2024-01-24T22:25:12.669Z,78.38
2024-01-24T22:27:40.514Z,77.07
2024-01-24T22:30:08.078Z,80.20
2024-01-24T22:32:35.514Z,76.90
2024-01-24T22:35:03.043Z,78.75
2024-01-24T22:37:30.230Z,73.18
2024-01-24T22:39:57.483Z,72.38
2024-01-24T22:42:24.562Z,78.25
2024-01-24T22:44:51.626Z,83.80
2024-01-24T22:47:20.666Z,84.38
2024-01-24T22:49:47.790Z,83.60
2024-01-24T22:52:15.036Z,85.28
2024-01-24T22:54:42.214Z,81.85
2024-01-24T22:57:09.301Z,83.85
2024-01-24T22:59:36.279Z,76.53
2024-01-24T23:02:03.442Z,73.05
2024-01-24T23:04:32.177Z,69.63
2024-01-24T23:06:59.439Z,68.35
2024-01-24T23:09:26.495Z,67.82
2024-01-24T23:11:53.725Z,67.35
2024-01-24T23:14:20.708Z,67.68
2024-01-24T23:16:48.912Z,66.13
2024-01-24T23:19:17.012Z,69.22
2024-01-24T23:21:44.112Z,90.15
2024-01-24T23:24:11.239Z,76.38
2024-01-24T23:26:38.768Z,74.00
2024-01-24T23:29:06.551Z,73.78
2024-01-24T23:31:33.544Z,72.25
2024-01-24T23:34:00.764Z,73.20
2024-01-24T23:36:27.967Z,76.03
2024-01-24T23:38:56.744Z,79.32
2024-01-24T23:41:23.916Z,77.38
2024-01-24T23:43:52.417Z,79.28
2024-01-24T23:46:19.624Z,77.53
2024-01-24T23:48:46.895Z,81.07
2024-01-24T23:51:14.956Z,82.25
2024-01-24T23:53:42.276Z,86.07
2024-01-24T23:56:09.291Z,87.75
2024-01-24T23:58:36.526Z,77.95
